Terminal Aerodrome Forecast
Issued by NWS

Current Version | Previous Version | Text Only | Print | Product List | Glossary On
Versions: 1 2 3 4 5 6 7 8 9 10 11 12
000
FTUS45 KREV 212330
TAFCXP
TAF
KCXP 212330Z 2200/2224 25008KT P6SM SCT050 BKN080
     FM220300 20006KT P6SM SCT035 BKN070
     FM220700 VRB04KT P6SM BKN035 OVC060
     FM222000 10007KT P6SM SCT040 BKN080=

USA.gov is the U.S. government's official web portal to all federal, state and local government web resources and services.